sensor_id;sensor_type;location;lat;lon;timestamp;P1;durP1;ratioP1;P2;durP2;ratioP2
16468;SDS011;8345;50.902;6.956;2023-07-20T00:00:26;4.50;;;3.30;;
16468;SDS011;8345;50.902;6.956;2023-07-20T00:03:09;4.73;;;2.93;;
16468;SDS011;8345;50.902;6.956;2023-07-20T00:05:37;4.60;;;3.40;;
16468;SDS011;8345;50.902;6.956;2023-07-20T00:08:05;4.13;;;3.43;;
16468;SDS011;8345;50.902;6.956;2023-07-20T00:10:32;3.57;;;2.87;;
16468;SDS011;8345;50.902;6.956;2023-07-20T00:12:59;3.77;;;2.73;;
16468;SDS011;8345;50.902;6.956;2023-07-20T00:15:28;4.20;;;3.47;;
16468;SDS011;8345;50.902;6.956;2023-07-20T00:17:55;4.83;;;3.13;;
16468;SDS011;8345;50.902;6.956;2023-07-20T00:20:23;4.57;;;2.90;;
16468;SDS011;8345;50.902;6.956;2023-07-20T00:22:50;4.73;;;2.83;;
16468;SDS011;8345;50.902;6.956;2023-07-20T00:25:20;4.37;;;3.03;;
16468;SDS011;8345;50.902;6.956;2023-07-20T00:27:47;5.07;;;3.03;;
16468;SDS011;8345;50.902;6.956;2023-07-20T00:30:14;4.43;;;3.10;;
16468;SDS011;8345;50.902;6.956;2023-07-20T00:32:43;5.63;;;3.20;;
16468;SDS011;8345;50.902;6.956;2023-07-20T00:35:10;5.03;;;3.70;;
16468;SDS011;8345;50.902;6.956;2023-07-20T00:37:38;3.70;;;3.30;;
16468;SDS011;8345;50.902;6.956;2023-07-20T00:40:06;6.33;;;3.40;;
16468;SDS011;8345;50.902;6.956;2023-07-20T00:42:34;3.20;;;2.90;;
16468;SDS011;8345;50.902;6.956;2023-07-20T00:45:01;4.40;;;3.20;;
16468;SDS011;8345;50.902;6.956;2023-07-20T00:47:28;4.63;;;3.50;;
16468;SDS011;8345;50.902;6.956;2023-07-20T00:49:56;4.00;;;2.97;;
16468;SDS011;8345;50.902;6.956;2023-07-20T00:52:24;4.70;;;3.40;;
16468;SDS011;8345;50.902;6.956;2023-07-20T00:54:52;4.03;;;3.20;;
16468;SDS011;8345;50.902;6.956;2023-07-20T00:57:21;3.93;;;3.07;;
16468;SDS011;8345;50.902;6.956;2023-07-20T00:59:50;3.23;;;2.90;;
16468;SDS011;8345;50.902;6.956;2023-07-20T01:02:18;4.10;;;3.07;;
16468;SDS011;8345;50.902;6.956;2023-07-20T01:04:45;5.03;;;2.90;;
16468;SDS011;8345;50.902;6.956;2023-07-20T01:07:14;3.33;;;2.90;;
16468;SDS011;8345;50.902;6.956;2023-07-20T01:09:46;5.00;;;2.90;;
16468;SDS011;8345;50.902;6.956;2023-07-20T01:12:17;4.83;;;3.20;;
16468;SDS011;8345;50.902;6.956;2023-07-20T01:14:45;4.67;;;3.20;;
16468;SDS011;8345;50.902;6.956;2023-07-20T01:17:13;3.87;;;2.90;;
16468;SDS011;8345;50.902;6.956;2023-07-20T01:19:40;4.00;;;3.00;;
16468;SDS011;8345;50.902;6.956;2023-07-20T01:22:09;3.37;;;2.80;;
16468;SDS011;8345;50.902;6.956;2023-07-20T01:24:54;3.40;;;2.83;;
16468;SDS011;8345;50.902;6.956;2023-07-20T01:27:36;5.00;;;3.07;;
16468;SDS011;8345;50.902;6.956;2023-07-20T01:30:16;3.33;;;2.80;;
16468;SDS011;8345;50.902;6.956;2023-07-20T01:32:47;3.47;;;2.60;;
16468;SDS011;8345;50.902;6.956;2023-07-20T01:35:14;4.17;;;2.30;;
16468;SDS011;8345;50.902;6.956;2023-07-20T01:37:43;2.87;;;2.40;;
16468;SDS011;8345;50.902;6.956;2023-07-20T01:40:11;3.70;;;2.40;;
16468;SDS011;8345;50.902;6.956;2023-07-20T01:42:43;4.10;;;2.47;;
16468;SDS011;8345;50.902;6.956;2023-07-20T01:45:10;3.83;;;2.83;;
16468;SDS011;8345;50.902;6.956;2023-07-20T01:47:37;2.90;;;2.57;;
16468;SDS011;8345;50.902;6.956;2023-07-20T01:50:06;3.43;;;3.13;;
16468;SDS011;8345;50.902;6.956;2023-07-20T01:52:34;4.07;;;3.07;;
16468;SDS011;8345;50.902;6.956;2023-07-20T01:55:01;4.23;;;3.50;;
16468;SDS011;8345;50.902;6.956;2023-07-20T01:57:29;4.93;;;3.23;;
16468;SDS011;8345;50.902;6.956;2023-07-20T01:59:56;5.03;;;3.10;;
16468;SDS011;8345;50.902;6.956;2023-07-20T02:02:25;3.63;;;2.93;;
16468;SDS011;8345;50.902;6.956;2023-07-20T02:04:53;5.73;;;3.20;;
16468;SDS011;8345;50.902;6.956;2023-07-20T02:07:21;4.43;;;3.50;;
16468;SDS011;8345;50.902;6.956;2023-07-20T02:09:48;4.90;;;3.17;;
16468;SDS011;8345;50.902;6.956;2023-07-20T02:12:16;4.80;;;3.17;;
16468;SDS011;8345;50.902;6.956;2023-07-20T02:14:43;5.77;;;3.30;;
16468;SDS011;8345;50.902;6.956;2023-07-20T02:17:10;4.63;;;3.20;;
16468;SDS011;8345;50.902;6.956;2023-07-20T02:19:37;4.30;;;3.40;;
16468;SDS011;8345;50.902;6.956;2023-07-20T02:22:04;5.00;;;3.57;;
16468;SDS011;8345;50.902;6.956;2023-07-20T02:24:33;5.87;;;3.13;;
16468;SDS011;8345;50.902;6.956;2023-07-20T02:27:01;4.87;;;3.23;;
16468;SDS011;8345;50.902;6.956;2023-07-20T02:29:28;4.07;;;3.47;;
16468;SDS011;8345;50.902;6.956;2023-07-20T02:31:55;4.90;;;3.50;;
16468;SDS011;8345;50.902;6.956;2023-07-20T02:34:25;4.40;;;3.27;;
16468;SDS011;8345;50.902;6.956;2023-07-20T02:36:52;4.10;;;3.50;;
16468;SDS011;8345;50.902;6.956;2023-07-20T02:39:21;4.43;;;3.30;;
16468;SDS011;8345;50.902;6.956;2023-07-20T02:41:49;5.00;;;3.47;;
16468;SDS011;8345;50.902;6.956;2023-07-20T02:44:16;5.37;;;3.73;;
16468;SDS011;8345;50.902;6.956;2023-07-20T02:46:43;4.27;;;3.77;;
16468;SDS011;8345;50.902;6.956;2023-07-20T02:49:11;5.20;;;3.43;;
16468;SDS011;8345;50.902;6.956;2023-07-20T02:51:38;6.87;;;3.43;;
16468;SDS011;8345;50.902;6.956;2023-07-20T02:54:05;4.77;;;3.73;;
16468;SDS011;8345;50.902;6.956;2023-07-20T02:56:32;4.07;;;3.20;;
16468;SDS011;8345;50.902;6.956;2023-07-20T02:59:02;4.57;;;3.57;;
16468;SDS011;8345;50.902;6.956;2023-07-20T03:01:29;4.63;;;4.03;;
16468;SDS011;8345;50.902;6.956;2023-07-20T03:03:56;4.53;;;3.70;;
16468;SDS011;8345;50.902;6.956;2023-07-20T03:06:23;5.40;;;3.60;;
16468;SDS011;8345;50.902;6.956;2023-07-20T03:08:50;4.30;;;3.60;;
16468;SDS011;8345;50.902;6.956;2023-07-20T03:11:18;3.93;;;3.57;;
16468;SDS011;8345;50.902;6.956;2023-07-20T03:13:46;6.80;;;3.47;;
16468;SDS011;8345;50.902;6.956;2023-07-20T03:16:17;4.10;;;3.50;;
16468;SDS011;8345;50.902;6.956;2023-07-20T03:18:44;4.17;;;3.57;;
16468;SDS011;8345;50.902;6.956;2023-07-20T03:21:12;4.30;;;3.10;;
16468;SDS011;8345;50.902;6.956;2023-07-20T03:23:39;4.17;;;3.50;;
16468;SDS011;8345;50.902;6.956;2023-07-20T03:26:06;4.60;;;3.73;;
16468;SDS011;8345;50.902;6.956;2023-07-20T03:28:34;5.93;;;3.40;;
16468;SDS011;8345;50.902;6.956;2023-07-20T03:31:01;6.20;;;3.73;;
16468;SDS011;8345;50.902;6.956;2023-07-20T03:33:30;4.20;;;3.40;;
16468;SDS011;8345;50.902;6.956;2023-07-20T03:35:57;5.30;;;3.43;;
16468;SDS011;8345;50.902;6.956;2023-07-20T03:38:25;5.10;;;2.90;;
16468;SDS011;8345;50.902;6.956;2023-07-20T03:40:53;6.10;;;3.70;;
16468;SDS011;8345;50.902;6.956;2023-07-20T03:43:20;5.50;;;4.83;;
16468;SDS011;8345;50.902;6.956;2023-07-20T03:45:47;6.33;;;3.30;;
16468;SDS011;8345;50.902;6.956;2023-07-20T03:48:15;6.27;;;3.60;;
16468;SDS011;8345;50.902;6.956;2023-07-20T03:50:45;5.37;;;3.27;;
16468;SDS011;8345;50.902;6.956;2023-07-20T03:53:12;3.87;;;3.50;;
16468;SDS011;8345;50.902;6.956;2023-07-20T03:55:39;4.80;;;3.43;;
16468;SDS011;8345;50.902;6.956;2023-07-20T03:58:06;4.17;;;3.27;;
16468;SDS011;8345;50.902;6.956;2023-07-20T04:00:33;4.67;;;3.43;;
16468;SDS011;8345;50.902;6.956;2023-07-20T04:03:01;4.30;;;3.10;;
16468;SDS011;8345;50.902;6.956;2023-07-20T04:05:28;4.23;;;3.03;;
16468;SDS011;8345;50.902;6.956;2023-07-20T04:07:56;4.57;;;3.20;;
16468;SDS011;8345;50.902;6.956;2023-07-20T04:10:23;3.40;;;2.67;;
16468;SDS011;8345;50.902;6.956;2023-07-20T04:12:50;5.50;;;3.30;;
16468;SDS011;8345;50.902;6.956;2023-07-20T04:15:18;3.80;;;3.17;;
16468;SDS011;8345;50.902;6.956;2023-07-20T04:17:45;6.27;;;3.20;;
16468;SDS011;8345;50.902;6.956;2023-07-20T04:20:12;4.40;;;3.40;;
16468;SDS011;8345;50.902;6.956;2023-07-20T04:22:39;4.83;;;3.30;;
16468;SDS011;8345;50.902;6.956;2023-07-20T04:25:08;3.93;;;3.20;;
16468;SDS011;8345;50.902;6.956;2023-07-20T04:27:35;4.00;;;3.30;;
16468;SDS011;8345;50.902;6.956;2023-07-20T04:30:03;5.50;;;3.43;;
16468;SDS011;8345;50.902;6.956;2023-07-20T04:32:30;5.80;;;3.47;;
16468;SDS011;8345;50.902;6.956;2023-07-20T04:34:58;4.70;;;3.43;;
16468;SDS011;8345;50.902;6.956;2023-07-20T04:37:26;5.13;;;3.20;;
16468;SDS011;8345;50.902;6.956;2023-07-20T04:39:53;5.50;;;3.70;;
16468;SDS011;8345;50.902;6.956;2023-07-20T04:42:21;6.80;;;3.70;;
16468;SDS011;8345;50.902;6.956;2023-07-20T04:44:48;5.23;;;4.03;;
16468;SDS011;8345;50.902;6.956;2023-07-20T04:47:15;6.33;;;3.53;;
16468;SDS011;8345;50.902;6.956;2023-07-20T04:49:43;7.50;;;4.00;;
16468;SDS011;8345;50.902;6.956;2023-07-20T04:52:10;6.70;;;3.90;;
16468;SDS011;8345;50.902;6.956;2023-07-20T04:54:37;6.70;;;3.60;;
16468;SDS011;8345;50.902;6.956;2023-07-20T04:57:09;6.47;;;4.20;;
16468;SDS011;8345;50.902;6.956;2023-07-20T04:59:37;5.57;;;3.73;;
16468;SDS011;8345;50.902;6.956;2023-07-20T05:02:05;4.87;;;3.73;;
16468;SDS011;8345;50.902;6.956;2023-07-20T05:04:32;6.63;;;3.77;;
16468;SDS011;8345;50.902;6.956;2023-07-20T05:06:59;6.50;;;4.30;;
16468;SDS011;8345;50.902;6.956;2023-07-20T05:09:26;5.63;;;4.40;;
16468;SDS011;8345;50.902;6.956;2023-07-20T05:11:53;5.33;;;4.50;;
16468;SDS011;8345;50.902;6.956;2023-07-20T05:14:21;7.87;;;4.60;;
16468;SDS011;8345;50.902;6.956;2023-07-20T05:16:49;5.57;;;3.93;;
16468;SDS011;8345;50.902;6.956;2023-07-20T05:19:16;4.67;;;4.10;;
16468;SDS011;8345;50.902;6.956;2023-07-20T05:21:43;6.37;;;4.27;;
16468;SDS011;8345;50.902;6.956;2023-07-20T05:24:10;5.73;;;4.03;;
16468;SDS011;8345;50.902;6.956;2023-07-20T05:26:38;6.03;;;4.47;;
16468;SDS011;8345;50.902;6.956;2023-07-20T05:29:05;7.73;;;4.77;;
16468;SDS011;8345;50.902;6.956;2023-07-20T05:31:32;8.73;;;4.50;;
16468;SDS011;8345;50.902;6.956;2023-07-20T05:34:00;8.57;;;4.70;;
16468;SDS011;8345;50.902;6.956;2023-07-20T05:36:28;7.30;;;4.27;;
16468;SDS011;8345;50.902;6.956;2023-07-20T05:38:58;7.27;;;4.87;;
16468;SDS011;8345;50.902;6.956;2023-07-20T05:41:26;5.27;;;4.07;;
16468;SDS011;8345;50.902;6.956;2023-07-20T05:43:53;7.03;;;4.00;;
16468;SDS011;8345;50.902;6.956;2023-07-20T05:46:20;10.07;;;4.33;;
16468;SDS011;8345;50.902;6.956;2023-07-20T05:48:49;7.80;;;4.53;;
16468;SDS011;8345;50.902;6.956;2023-07-20T05:51:17;6.67;;;4.87;;
16468;SDS011;8345;50.902;6.956;2023-07-20T05:53:45;7.40;;;3.97;;
16468;SDS011;8345;50.902;6.956;2023-07-20T05:56:13;9.67;;;4.47;;
16468;SDS011;8345;50.902;6.956;2023-07-20T05:58:40;5.43;;;3.83;;
16468;SDS011;8345;50.902;6.956;2023-07-20T06:01:07;6.43;;;4.13;;
16468;SDS011;8345;50.902;6.956;2023-07-20T06:03:34;6.80;;;4.13;;
16468;SDS011;8345;50.902;6.956;2023-07-20T06:06:02;8.07;;;4.50;;
16468;SDS011;8345;50.902;6.956;2023-07-20T06:08:32;7.77;;;4.23;;
16468;SDS011;8345;50.902;6.956;2023-07-20T06:10:59;11.50;;;4.33;;
16468;SDS011;8345;50.902;6.956;2023-07-20T06:13:26;7.63;;;6.20;;
16468;SDS011;8345;50.902;6.956;2023-07-20T06:15:53;8.37;;;6.47;;
16468;SDS011;8345;50.902;6.956;2023-07-20T06:18:22;9.17;;;7.40;;
16468;SDS011;8345;50.902;6.956;2023-07-20T06:20:49;7.37;;;6.60;;
16468;SDS011;8345;50.902;6.956;2023-07-20T06:23:16;7.90;;;6.50;;
16468;SDS011;8345;50.902;6.956;2023-07-20T06:25:45;8.27;;;6.50;;
16468;SDS011;8345;50.902;6.956;2023-07-20T06:28:12;9.43;;;7.80;;
16468;SDS011;8345;50.902;6.956;2023-07-20T06:30:40;9.20;;;7.33;;
16468;SDS011;8345;50.902;6.956;2023-07-20T06:33:07;15.47;;;7.73;;
16468;SDS011;8345;50.902;6.956;2023-07-20T06:35:34;10.13;;;9.03;;
16468;SDS011;8345;50.902;6.956;2023-07-20T06:38:01;11.00;;;9.40;;
16468;SDS011;8345;50.902;6.956;2023-07-20T06:40:29;10.97;;;9.67;;
16468;SDS011;8345;50.902;6.956;2023-07-20T06:42:57;11.40;;;10.40;;
16468;SDS011;8345;50.902;6.956;2023-07-20T06:45:24;10.43;;;9.33;;
16468;SDS011;8345;50.902;6.956;2023-07-20T06:47:51;11.70;;;10.50;;
16468;SDS011;8345;50.902;6.956;2023-07-20T06:50:19;12.00;;;10.87;;
16468;SDS011;8345;50.902;6.956;2023-07-20T06:52:46;10.60;;;9.33;;
16468;SDS011;8345;50.902;6.956;2023-07-20T06:55:13;10.00;;;9.00;;
16468;SDS011;8345;50.902;6.956;2023-07-20T06:57:40;11.67;;;8.23;;
16468;SDS011;8345;50.902;6.956;2023-07-20T07:00:09;9.27;;;7.87;;
16468;SDS011;8345;50.902;6.956;2023-07-20T07:02:37;9.07;;;8.10;;
16468;SDS011;8345;50.902;6.956;2023-07-20T07:05:05;9.07;;;7.67;;
16468;SDS011;8345;50.902;6.956;2023-07-20T07:07:32;8.43;;;7.60;;
16468;SDS011;8345;50.902;6.956;2023-07-20T07:09:59;8.80;;;7.90;;
16468;SDS011;8345;50.902;6.956;2023-07-20T07:12:28;9.20;;;8.30;;
16468;SDS011;8345;50.902;6.956;2023-07-20T07:14:55;9.17;;;7.70;;
16468;SDS011;8345;50.902;6.956;2023-07-20T07:17:24;7.50;;;6.80;;
16468;SDS011;8345;50.902;6.956;2023-07-20T07:19:51;8.20;;;7.30;;
16468;SDS011;8345;50.902;6.956;2023-07-20T07:22:19;7.20;;;6.50;;
16468;SDS011;8345;50.902;6.956;2023-07-20T07:24:47;8.07;;;7.37;;
16468;SDS011;8345;50.902;6.956;2023-07-20T07:27:15;7.13;;;6.43;;
16468;SDS011;8345;50.902;6.956;2023-07-20T07:29:42;7.37;;;6.50;;
16468;SDS011;8345;50.902;6.956;2023-07-20T07:32:10;7.80;;;6.87;;
16468;SDS011;8345;50.902;6.956;2023-07-20T07:34:38;7.90;;;7.10;;
16468;SDS011;8345;50.902;6.956;2023-07-20T07:37:06;7.67;;;6.97;;
16468;SDS011;8345;50.902;6.956;2023-07-20T07:39:33;6.67;;;6.07;;
16468;SDS011;8345;50.902;6.956;2023-07-20T07:42:00;8.37;;;6.43;;
16468;SDS011;8345;50.902;6.956;2023-07-20T07:44:27;8.57;;;6.67;;
16468;SDS011;8345;50.902;6.956;2023-07-20T07:46:55;7.73;;;7.03;;
16468;SDS011;8345;50.902;6.956;2023-07-20T07:49:22;7.43;;;6.57;;
16468;SDS011;8345;50.902;6.956;2023-07-20T07:51:50;7.97;;;7.20;;
16468;SDS011;8345;50.902;6.956;2023-07-20T07:54:17;7.10;;;6.40;;
16468;SDS011;8345;50.902;6.956;2023-07-20T07:56:45;5.97;;;5.33;;
16468;SDS011;8345;50.902;6.956;2023-07-20T07:59:12;5.70;;;5.20;;
16468;SDS011;8345;50.902;6.956;2023-07-20T08:01:39;6.90;;;5.17;;
16468;SDS011;8345;50.902;6.956;2023-07-20T08:04:06;4.63;;;4.20;;
16468;SDS011;8345;50.902;6.956;2023-07-20T08:06:33;4.50;;;4.10;;
16468;SDS011;8345;50.902;6.956;2023-07-20T08:09:02;5.03;;;4.53;;
16468;SDS011;8345;50.902;6.956;2023-07-20T08:11:29;4.73;;;3.97;;
16468;SDS011;8345;50.902;6.956;2023-07-20T08:13:58;5.13;;;4.60;;
16468;SDS011;8345;50.902;6.956;2023-07-20T08:16:26;4.60;;;4.20;;
16468;SDS011;8345;50.902;6.956;2023-07-20T08:18:53;4.40;;;4.00;;
16468;SDS011;8345;50.902;6.956;2023-07-20T08:21:20;5.70;;;4.50;;
16468;SDS011;8345;50.902;6.956;2023-07-20T08:23:47;4.13;;;3.73;;
16468;SDS011;8345;50.902;6.956;2023-07-20T08:26:15;5.27;;;4.57;;
16468;SDS011;8345;50.902;6.956;2023-07-20T08:28:44;6.07;;;4.63;;
16468;SDS011;8345;50.902;6.956;2023-07-20T08:31:13;4.53;;;4.13;;
16468;SDS011;8345;50.902;6.956;2023-07-20T08:33:40;5.40;;;4.33;;
16468;SDS011;8345;50.902;6.956;2023-07-20T08:36:07;4.90;;;4.50;;
16468;SDS011;8345;50.902;6.956;2023-07-20T08:38:34;4.93;;;4.20;;
16468;SDS011;8345;50.902;6.956;2023-07-20T08:41:02;5.03;;;4.53;;
16468;SDS011;8345;50.902;6.956;2023-07-20T08:43:30;6.87;;;4.93;;
16468;SDS011;8345;50.902;6.956;2023-07-20T08:45:58;5.30;;;4.80;;
16468;SDS011;8345;50.902;6.956;2023-07-20T08:48:25;5.47;;;4.00;;
16468;SDS011;8345;50.902;6.956;2023-07-20T08:50:54;6.33;;;3.97;;
16468;SDS011;8345;50.902;6.956;2023-07-20T08:53:22;6.73;;;3.80;;
16468;SDS011;8345;50.902;6.956;2023-07-20T08:55:50;4.63;;;3.63;;
16468;SDS011;8345;50.902;6.956;2023-07-20T08:58:17;4.83;;;3.90;;
16468;SDS011;8345;50.902;6.956;2023-07-20T09:00:46;3.47;;;3.20;;
16468;SDS011;8345;50.902;6.956;2023-07-20T09:03:15;3.77;;;3.47;;
16468;SDS011;8345;50.902;6.956;2023-07-20T09:05:42;5.07;;;3.90;;
16468;SDS011;8345;50.902;6.956;2023-07-20T09:08:09;4.93;;;3.40;;
16468;SDS011;8345;50.902;6.956;2023-07-20T09:10:37;4.83;;;3.47;;
16468;SDS011;8345;50.902;6.956;2023-07-20T09:13:04;4.03;;;3.63;;
16468;SDS011;8345;50.902;6.956;2023-07-20T09:15:31;4.87;;;3.50;;
16468;SDS011;8345;50.902;6.956;2023-07-20T09:18:00;4.20;;;3.80;;
16468;SDS011;8345;50.902;6.956;2023-07-20T09:20:28;4.20;;;3.60;;
16468;SDS011;8345;50.902;6.956;2023-07-20T09:22:57;5.90;;;3.57;;
16468;SDS011;8345;50.902;6.956;2023-07-20T09:25:24;4.77;;;3.63;;
16468;SDS011;8345;50.902;6.956;2023-07-20T09:27:54;7.00;;;4.37;;
16468;SDS011;8345;50.902;6.956;2023-07-20T09:30:24;4.50;;;4.10;;
16468;SDS011;8345;50.902;6.956;2023-07-20T09:32:52;4.33;;;3.67;;
16468;SDS011;8345;50.902;6.956;2023-07-20T09:35:21;4.17;;;3.40;;
16468;SDS011;8345;50.902;6.956;2023-07-20T09:37:49;4.73;;;3.30;;
16468;SDS011;8345;50.902;6.956;2023-07-20T09:40:18;3.83;;;3.30;;
16468;SDS011;8345;50.902;6.956;2023-07-20T09:42:46;4.30;;;2.93;;
16468;SDS011;8345;50.902;6.956;2023-07-20T09:45:13;3.87;;;2.93;;
16468;SDS011;8345;50.902;6.956;2023-07-20T09:47:40;4.37;;;3.20;;
16468;SDS011;8345;50.902;6.956;2023-07-20T09:50:07;3.60;;;3.30;;
16468;SDS011;8345;50.902;6.956;2023-07-20T09:52:41;3.83;;;3.07;;
16468;SDS011;8345;50.902;6.956;2023-07-20T09:55:09;3.70;;;3.40;;
16468;SDS011;8345;50.902;6.956;2023-07-20T09:57:37;4.73;;;2.80;;
16468;SDS011;8345;50.902;6.956;2023-07-20T10:00:05;3.43;;;2.63;;
16468;SDS011;8345;50.902;6.956;2023-07-20T10:02:41;4.23;;;2.87;;
16468;SDS011;8345;50.902;6.956;2023-07-20T10:05:11;4.30;;;2.70;;
16468;SDS011;8345;50.902;6.956;2023-07-20T10:07:43;3.63;;;3.00;;
16468;SDS011;8345;50.902;6.956;2023-07-20T10:10:10;4.33;;;3.93;;
16468;SDS011;8345;50.902;6.956;2023-07-20T10:12:38;8.67;;;7.87;;
16468;SDS011;8345;50.902;6.956;2023-07-20T10:15:09;6.97;;;2.43;;
16468;SDS011;8345;50.902;6.956;2023-07-20T10:17:40;2.87;;;2.53;;
16468;SDS011;8345;50.902;6.956;2023-07-20T10:20:09;2.97;;;2.47;;
16468;SDS011;8345;50.902;6.956;2023-07-20T10:22:38;3.50;;;2.30;;
16468;SDS011;8345;50.902;6.956;2023-07-20T10:25:06;2.20;;;1.93;;
16468;SDS011;8345;50.902;6.956;2023-07-20T10:27:34;3.23;;;2.27;;
16468;SDS011;8345;50.902;6.956;2023-07-20T10:30:01;3.47;;;2.00;;
16468;SDS011;8345;50.902;6.956;2023-07-20T10:32:29;2.87;;;2.60;;
16468;SDS011;8345;50.902;6.956;2023-07-20T10:34:56;5.47;;;2.40;;
16468;SDS011;8345;50.902;6.956;2023-07-20T10:40:27;2.47;;;2.10;;
16468;SDS011;8345;50.902;6.956;2023-07-20T10:42:56;3.40;;;2.20;;
16468;SDS011;8345;50.902;6.956;2023-07-20T10:45:32;3.00;;;2.40;;
16468;SDS011;8345;50.902;6.956;2023-07-20T10:48:03;2.87;;;2.17;;
16468;SDS011;8345;50.902;6.956;2023-07-20T10:50:30;3.03;;;2.00;;
16468;SDS011;8345;50.902;6.956;2023-07-20T10:55:43;3.07;;;2.17;;
16468;SDS011;8345;50.902;6.956;2023-07-20T10:58:15;3.03;;;2.03;;
16468;SDS011;8345;50.902;6.956;2023-07-20T11:00:57;3.37;;;2.03;;
16468;SDS011;8345;50.902;6.956;2023-07-20T11:03:27;2.40;;;2.20;;
16468;SDS011;8345;50.902;6.956;2023-07-20T11:05:55;2.30;;;1.87;;
16468;SDS011;8345;50.902;6.956;2023-07-20T11:08:37;2.20;;;2.00;;
16468;SDS011;8345;50.902;6.956;2023-07-20T11:11:23;2.83;;;2.27;;
16468;SDS011;8345;50.902;6.956;2023-07-20T11:13:53;1.90;;;1.80;;
16468;SDS011;8345;50.902;6.956;2023-07-20T11:16:28;3.33;;;2.07;;
16468;SDS011;8345;50.902;6.956;2023-07-20T11:18:58;2.27;;;1.90;;
16468;SDS011;8345;50.902;6.956;2023-07-20T11:21:26;2.60;;;2.00;;
16468;SDS011;8345;50.902;6.956;2023-07-20T11:23:53;3.20;;;1.80;;
16468;SDS011;8345;50.902;6.956;2023-07-20T11:26:20;4.03;;;1.90;;
16468;SDS011;8345;50.902;6.956;2023-07-20T11:28:49;2.77;;;1.90;;
16468;SDS011;8345;50.902;6.956;2023-07-20T11:31:17;2.13;;;2.00;;
16468;SDS011;8345;50.902;6.956;2023-07-20T11:33:44;2.27;;;1.70;;
16468;SDS011;8345;50.902;6.956;2023-07-20T11:36:11;1.70;;;1.60;;
16468;SDS011;8345;50.902;6.956;2023-07-20T11:38:40;2.70;;;1.80;;
16468;SDS011;8345;50.902;6.956;2023-07-20T11:41:09;2.23;;;1.80;;
16468;SDS011;8345;50.902;6.956;2023-07-20T11:43:36;2.27;;;2.03;;
16468;SDS011;8345;50.902;6.956;2023-07-20T11:46:05;3.33;;;2.30;;
16468;SDS011;8345;50.902;6.956;2023-07-20T11:48:32;2.50;;;2.13;;
16468;SDS011;8345;50.902;6.956;2023-07-20T11:51:00;2.50;;;2.30;;
16468;SDS011;8345;50.902;6.956;2023-07-20T11:53:27;2.10;;;1.80;;
16468;SDS011;8345;50.902;6.956;2023-07-20T11:55:54;2.83;;;1.80;;
16468;SDS011;8345;50.902;6.956;2023-07-20T11:58:21;4.70;;;2.43;;
16468;SDS011;8345;50.902;6.956;2023-07-20T12:00:48;2.37;;;1.50;;
16468;SDS011;8345;50.902;6.956;2023-07-20T12:03:17;2.30;;;1.90;;
16468;SDS011;8345;50.902;6.956;2023-07-20T12:05:44;2.23;;;1.67;;
16468;SDS011;8345;50.902;6.956;2023-07-20T12:08:12;3.53;;;1.50;;
16468;SDS011;8345;50.902;6.956;2023-07-20T12:10:39;1.77;;;1.63;;
16468;SDS011;8345;50.902;6.956;2023-07-20T12:13:09;4.00;;;1.60;;
16468;SDS011;8345;50.902;6.956;2023-07-20T12:15:37;1.70;;;1.40;;
16468;SDS011;8345;50.902;6.956;2023-07-20T12:18:04;2.10;;;1.50;;
16468;SDS011;8345;50.902;6.956;2023-07-20T12:20:33;2.13;;;1.50;;
16468;SDS011;8345;50.902;6.956;2023-07-20T12:23:02;2.93;;;1.50;;
16468;SDS011;8345;50.902;6.956;2023-07-20T12:25:33;1.80;;;1.63;;
16468;SDS011;8345;50.902;6.956;2023-07-20T12:28:00;1.87;;;1.77;;
16468;SDS011;8345;50.902;6.956;2023-07-20T12:30:28;1.90;;;1.60;;
16468;SDS011;8345;50.902;6.956;2023-07-20T12:32:56;3.60;;;1.63;;
16468;SDS011;8345;50.902;6.956;2023-07-20T12:35:23;2.20;;;1.37;;
16468;SDS011;8345;50.902;6.956;2023-07-20T12:37:51;1.60;;;1.50;;
16468;SDS011;8345;50.902;6.956;2023-07-20T12:40:19;2.90;;;1.70;;
16468;SDS011;8345;50.902;6.956;2023-07-20T12:42:46;2.27;;;1.60;;
16468;SDS011;8345;50.902;6.956;2023-07-20T12:45:13;2.53;;;1.80;;
16468;SDS011;8345;50.902;6.956;2023-07-20T12:47:40;1.93;;;1.83;;
16468;SDS011;8345;50.902;6.956;2023-07-20T12:50:08;1.97;;;1.63;;
16468;SDS011;8345;50.902;6.956;2023-07-20T12:52:35;2.40;;;1.57;;
16468;SDS011;8345;50.902;6.956;2023-07-20T12:55:05;1.80;;;1.70;;
16468;SDS011;8345;50.902;6.956;2023-07-20T12:57:33;1.97;;;1.70;;
16468;SDS011;8345;50.902;6.956;2023-07-20T13:00:00;4.53;;;1.60;;
16468;SDS011;8345;50.902;6.956;2023-07-20T13:02:28;3.57;;;1.70;;
16468;SDS011;8345;50.902;6.956;2023-07-20T13:04:55;2.50;;;1.60;;
16468;SDS011;8345;50.902;6.956;2023-07-20T13:07:29;2.33;;;1.73;;
16468;SDS011;8345;50.902;6.956;2023-07-20T13:09:56;1.77;;;1.67;;
16468;SDS011;8345;50.902;6.956;2023-07-20T13:12:26;2.50;;;1.63;;
16468;SDS011;8345;50.902;6.956;2023-07-20T13:14:54;1.70;;;1.40;;
16468;SDS011;8345;50.902;6.956;2023-07-20T13:17:21;3.43;;;1.50;;
16468;SDS011;8345;50.902;6.956;2023-07-20T13:19:48;3.73;;;1.87;;
16468;SDS011;8345;50.902;6.956;2023-07-20T13:22:16;3.00;;;1.90;;
16468;SDS011;8345;50.902;6.956;2023-07-20T13:24:44;1.83;;;1.50;;
16468;SDS011;8345;50.902;6.956;2023-07-20T13:27:14;2.27;;;1.73;;
16468;SDS011;8345;50.902;6.956;2023-07-20T13:29:42;1.90;;;1.80;;
16468;SDS011;8345;50.902;6.956;2023-07-20T13:32:09;3.00;;;1.60;;
16468;SDS011;8345;50.902;6.956;2023-07-20T13:34:37;4.40;;;1.70;;
16468;SDS011;8345;50.902;6.956;2023-07-20T13:37:04;2.13;;;1.50;;
16468;SDS011;8345;50.902;6.956;2023-07-20T13:39:31;2.10;;;1.80;;
16468;SDS011;8345;50.902;6.956;2023-07-20T13:41:58;2.70;;;1.50;;
16468;SDS011;8345;50.902;6.956;2023-07-20T13:44:27;2.57;;;1.50;;
16468;SDS011;8345;50.902;6.956;2023-07-20T13:46:56;3.73;;;1.93;;
16468;SDS011;8345;50.902;6.956;2023-07-20T13:49:23;1.50;;;1.40;;
16468;SDS011;8345;50.902;6.956;2023-07-20T13:51:50;2.53;;;1.53;;
16468;SDS011;8345;50.902;6.956;2023-07-20T13:54:18;1.70;;;1.60;;
16468;SDS011;8345;50.902;6.956;2023-07-20T13:56:45;2.37;;;1.80;;
16468;SDS011;8345;50.902;6.956;2023-07-20T13:59:12;5.73;;;2.60;;
16468;SDS011;8345;50.902;6.956;2023-07-20T14:01:39;3.37;;;1.40;;
16468;SDS011;8345;50.902;6.956;2023-07-20T14:04:08;3.30;;;1.50;;
16468;SDS011;8345;50.902;6.956;2023-07-20T14:06:35;1.97;;;1.40;;
16468;SDS011;8345;50.902;6.956;2023-07-20T14:09:02;1.52;;;1.38;;
16468;SDS011;8345;50.902;6.956;2023-07-20T14:11:30;1.65;;;1.55;;
16468;SDS011;8345;50.902;6.956;2023-07-20T14:13:57;2.65;;;1.15;;
16468;SDS011;8345;50.902;6.956;2023-07-20T14:16:24;2.13;;;1.90;;
16468;SDS011;8345;50.902;6.956;2023-07-20T14:18:51;2.90;;;1.50;;
16468;SDS011;8345;50.902;6.956;2023-07-20T14:21:20;6.18;;;1.88;;
16468;SDS011;8345;50.902;6.956;2023-07-20T14:23:48;2.80;;;1.60;;
16468;SDS011;8345;50.902;6.956;2023-07-20T14:26:16;2.05;;;1.65;;
16468;SDS011;8345;50.902;6.956;2023-07-20T14:28:43;1.83;;;1.50;;
16468;SDS011;8345;50.902;6.956;2023-07-20T14:31:10;2.33;;;1.40;;
16468;SDS011;8345;50.902;6.956;2023-07-20T14:33:37;1.87;;;1.40;;
16468;SDS011;8345;50.902;6.956;2023-07-20T14:36:04;2.55;;;1.60;;
16468;SDS011;8345;50.902;6.956;2023-07-20T14:38:33;2.00;;;1.40;;
16468;SDS011;8345;50.902;6.956;2023-07-20T14:41:01;1.70;;;1.60;;
16468;SDS011;8345;50.902;6.956;2023-07-20T14:43:28;2.83;;;1.47;;
16468;SDS011;8345;50.902;6.956;2023-07-20T14:45:55;2.37;;;1.57;;
16468;SDS011;8345;50.902;6.956;2023-07-20T14:48:22;2.67;;;1.70;;
16468;SDS011;8345;50.902;6.956;2023-07-20T14:50:49;3.00;;;1.42;;
16468;SDS011;8345;50.902;6.956;2023-07-20T14:53:16;2.25;;;1.42;;
16468;SDS011;8345;50.902;6.956;2023-07-20T14:55:45;1.42;;;1.33;;
16468;SDS011;8345;50.902;6.956;2023-07-20T14:58:12;1.15;;;1.15;;
16468;SDS011;8345;50.902;6.956;2023-07-20T15:00:39;1.98;;;1.30;;
16468;SDS011;8345;50.902;6.956;2023-07-20T15:03:06;1.25;;;1.15;;
16468;SDS011;8345;50.902;6.956;2023-07-20T15:05:34;2.10;;;1.93;;
16468;SDS011;8345;50.902;6.956;2023-07-20T15:08:03;1.70;;;1.33;;
16468;SDS011;8345;50.902;6.956;2023-07-20T15:10:31;1.40;;;1.33;;